createdAt,value
2019-02-18T00:00:41.135Z,51.63
2019-02-18T00:03:09.947Z,47.53
2019-02-18T00:05:38.407Z,52.50
2019-02-18T00:08:07.021Z,56.77
2019-02-18T00:10:35.474Z,47.70
2019-02-18T00:13:04.025Z,44.63
2019-02-18T00:15:32.584Z,43.53
2019-02-18T00:18:01.154Z,49.47
2019-02-18T00:20:29.676Z,47.43
2019-02-18T00:22:58.175Z,49.17
2019-02-18T00:25:26.704Z,51.97
2019-02-18T00:27:55.169Z,51.00
2019-02-18T00:30:23.752Z,53.67
2019-02-18T00:32:52.304Z,50.80
2019-02-18T00:35:20.758Z,50.70
2019-02-18T00:37:49.394Z,53.07
2019-02-18T00:40:17.936Z,53.23
2019-02-18T00:42:46.483Z,51.90
2019-02-18T00:45:15.020Z,50.00
2019-02-18T00:47:43.481Z,58.60
2019-02-18T00:50:12.675Z,50.33
2019-02-18T00:52:41.144Z,47.27
2019-02-18T00:55:09.872Z,48.33
2019-02-18T00:57:38.327Z,53.63
2019-02-18T01:00:12.693Z,47.30
2019-02-18T01:02:41.222Z,50.70
2019-02-18T01:05:11.326Z,51.40
2019-02-18T01:07:39.922Z,49.43
2019-02-18T01:10:11.418Z,55.27
2019-02-18T01:12:40.177Z,44.73
2019-02-18T01:15:11.543Z,48.77
2019-02-18T01:17:40.087Z,48.17
2019-02-18T01:20:11.386Z,48.07
2019-02-18T01:22:39.917Z,45.43
2019-02-18T01:25:10.949Z,48.30
2019-02-18T01:27:39.412Z,52.10
2019-02-18T01:30:13.791Z,46.90
2019-02-18T01:32:42.290Z,53.20
2019-02-18T01:35:11.497Z,49.27
2019-02-18T01:37:45.784Z,43.63
2019-02-18T01:40:12.862Z,50.17
2019-02-18T01:42:41.390Z,40.73
2019-02-18T01:45:14.360Z,46.43
2019-02-18T01:47:42.810Z,51.37
2019-02-18T01:50:30.619Z,48.90
2019-02-18T01:52:59.073Z,51.73
2019-02-18T01:55:27.536Z,48.80
2019-02-18T01:57:56.020Z,48.10
2019-02-18T02:00:24.473Z,43.10
2019-02-18T02:02:52.926Z,50.43
2019-02-18T02:05:21.413Z,47.17
2019-02-18T02:07:56.244Z,48.83
2019-02-18T02:10:20.079Z,44.97
2019-02-18T02:12:48.544Z,49.00
2019-02-18T02:15:26.166Z,41.77
2019-02-18T02:17:54.707Z,47.73
2019-02-18T02:20:23.235Z,47.30
2019-02-18T02:22:52.131Z,51.93
2019-02-18T02:25:20.662Z,48.20
2019-02-18T02:27:49.151Z,50.17
2019-02-18T02:30:17.683Z,44.93
2019-02-18T02:32:46.138Z,45.63
2019-02-18T02:35:14.639Z,48.43
2019-02-18T02:37:43.106Z,46.33
2019-02-18T02:40:11.705Z,45.90
2019-02-18T02:42:40.284Z,49.13
2019-02-18T02:45:09.280Z,47.87
2019-02-18T02:47:37.739Z,46.43
2019-02-18T02:50:07.481Z,47.80
2019-02-18T02:52:36.020Z,48.27
2019-02-18T02:55:06.006Z,47.37
2019-02-18T02:57:34.453Z,45.60
2019-02-18T03:00:03.354Z,52.90
2019-02-18T03:02:31.818Z,51.67
2019-02-18T03:05:00.486Z,51.23
2019-02-18T03:07:29.137Z,45.90
2019-02-18T03:09:57.591Z,55.57
2019-02-18T03:12:26.055Z,43.57
2019-02-18T03:14:54.628Z,51.83
2019-02-18T03:17:23.093Z,50.63
2019-02-18T03:19:51.627Z,55.73
2019-02-18T03:22:20.094Z,48.00
2019-02-18T03:25:15.443Z,56.57
2019-02-18T03:27:43.998Z,53.03
2019-02-18T03:30:40.987Z,57.03
2019-02-18T03:33:15.556Z,58.27
2019-02-18T03:35:44.083Z,61.40
2019-02-18T03:38:12.544Z,56.27
2019-02-18T03:40:41.010Z,54.30
2019-02-18T03:43:09.480Z,56.03
2019-02-18T03:45:38.026Z,57.50
2019-02-18T03:48:06.512Z,60.67
2019-02-18T03:50:34.967Z,56.07
2019-02-18T03:53:03.434Z,60.83
2019-02-18T03:55:32.020Z,56.17
2019-02-18T03:58:00.505Z,56.87
2019-02-18T04:00:28.967Z,55.80
2019-02-18T04:02:57.417Z,56.17
2019-02-18T04:05:25.872Z,52.53
2019-02-18T04:07:54.374Z,53.53
2019-02-18T04:10:22.840Z,51.63
2019-02-18T04:12:51.297Z,55.33
2019-02-18T04:15:19.854Z,56.17
2019-02-18T04:17:48.307Z,52.93
2019-02-18T04:20:16.776Z,52.17
2019-02-18T04:22:45.802Z,52.40
2019-02-18T04:25:14.369Z,51.87
2019-02-18T04:27:42.904Z,49.87
2019-02-18T04:30:13.729Z,46.53
2019-02-18T04:32:42.092Z,47.83
2019-02-18T04:35:10.551Z,51.77
2019-02-18T04:37:39.132Z,50.97
2019-02-18T04:40:08.994Z,52.70
2019-02-18T04:42:37.463Z,59.83
2019-02-18T04:45:08.920Z,55.60
2019-02-18T04:47:37.366Z,53.23
2019-02-18T04:50:07.673Z,50.77
2019-02-18T04:52:36.157Z,48.77
2019-02-18T04:55:10.082Z,50.67
2019-02-18T04:57:38.581Z,56.90
2019-02-18T05:00:09.380Z,46.87
2019-02-18T05:02:37.909Z,46.90
2019-02-18T05:05:09.249Z,48.30
2019-02-18T05:07:37.778Z,46.67
2019-02-18T05:10:13.172Z,52.23
2019-02-18T05:12:41.724Z,47.60
2019-02-18T05:15:10.423Z,55.43
2019-02-18T05:17:38.964Z,47.57
2019-02-18T05:20:08.668Z,54.80
2019-02-18T05:22:37.117Z,57.27
2019-02-18T05:25:07.315Z,55.00
2019-02-18T05:27:35.789Z,49.77
2019-02-18T05:30:06.456Z,49.40
2019-02-18T05:32:34.951Z,51.33
2019-02-18T05:35:03.549Z,50.03
2019-02-18T05:37:32.310Z,49.17
2019-02-18T05:40:00.898Z,51.37
2019-02-18T05:42:29.413Z,49.07
2019-02-18T05:44:57.948Z,55.17
2019-02-18T05:47:26.479Z,57.13
2019-02-18T05:49:55.029Z,61.60
2019-02-18T05:52:23.665Z,59.13
2019-02-18T05:54:52.177Z,56.33
2019-02-18T05:57:22.757Z,53.77
2019-02-18T05:59:50.810Z,54.00
2019-02-18T06:02:21.368Z,51.17
2019-02-18T06:04:49.898Z,55.43
2019-02-18T06:07:18.431Z,54.23
2019-02-18T06:09:46.971Z,59.30
2019-02-18T06:12:15.501Z,58.43
2019-02-18T06:14:43.972Z,55.93
2019-02-18T06:17:12.427Z,57.43
2019-02-18T06:19:40.949Z,52.10
2019-02-18T06:22:09.433Z,50.60
2019-02-18T06:24:37.903Z,49.63
2019-02-18T06:27:06.433Z,54.10
2019-02-18T06:29:35.099Z,60.30
2019-02-18T06:32:03.599Z,59.17
2019-02-18T06:34:32.094Z,56.97
2019-02-18T06:37:00.548Z,55.77
2019-02-18T06:39:40.259Z,51.10
2019-02-18T06:41:59.233Z,51.80
2019-02-18T06:44:29.333Z,51.53
2019-02-18T06:46:59.444Z,52.87
2019-02-18T06:49:27.911Z,47.50
2019-02-18T06:51:56.375Z,49.03
2019-02-18T06:54:24.939Z,53.93
2019-02-18T06:57:03.638Z,49.93
2019-02-18T06:59:36.545Z,44.37
2019-02-18T07:02:12.350Z,50.00
2019-02-18T07:04:48.247Z,48.87
2019-02-18T07:07:18.380Z,45.57
2019-02-18T07:09:51.767Z,48.53
2019-02-18T07:12:22.059Z,44.90
2019-02-18T07:14:50.516Z,44.57
2019-02-18T07:17:19.051Z,48.27
2019-02-18T07:19:47.604Z,49.80
2019-02-18T07:22:16.053Z,50.43
2019-02-18T07:24:44.779Z,50.17
2019-02-18T07:27:13.237Z,46.60
2019-02-18T07:29:41.723Z,53.03
2019-02-18T07:32:10.665Z,51.67
2019-02-18T07:34:39.269Z,49.87
2019-02-18T07:37:07.846Z,44.47
2019-02-18T07:39:36.389Z,46.73
2019-02-18T07:42:04.840Z,44.27
2019-02-18T07:44:33.390Z,42.27
2019-02-18T07:47:01.841Z,45.37
2019-02-18T07:49:30.298Z,48.80
2019-02-18T07:51:58.751Z,49.07
2019-02-18T07:54:27.343Z,43.70
2019-02-18T07:56:55.800Z,41.60
2019-02-18T07:59:24.267Z,48.13
2019-02-18T08:01:52.761Z,46.07
2019-02-18T08:04:21.229Z,49.00
2019-02-18T08:06:49.749Z,47.47
2019-02-18T08:09:18.223Z,46.20
2019-02-18T08:11:46.669Z,46.73
2019-02-18T08:14:15.168Z,51.93
2019-02-18T08:16:43.621Z,42.40
2019-02-18T08:19:12.075Z,53.20
2019-02-18T08:21:40.530Z,47.07
2019-02-18T08:24:09.014Z,37.63
2019-02-18T08:26:37.466Z,41.80
2019-02-18T08:29:05.914Z,44.33
2019-02-18T08:31:34.367Z,42.60
2019-02-18T08:34:02.843Z,44.40
2019-02-18T08:36:31.333Z,40.60
2019-02-18T08:38:59.847Z,44.53
2019-02-18T08:41:28.306Z,41.47
2019-02-18T08:43:56.835Z,39.13
2019-02-18T08:46:25.375Z,39.40
2019-02-18T08:48:53.850Z,50.40
2019-02-18T08:51:22.379Z,34.30
2019-02-18T08:53:50.967Z,40.33
2019-02-18T08:56:19.827Z,36.50
2019-02-18T08:58:48.278Z,39.93
2019-02-18T09:01:16.777Z,37.03
2019-02-18T09:03:45.306Z,33.37
2019-02-18T09:06:13.767Z,30.73
2019-02-18T09:08:42.311Z,31.97
2019-02-18T09:11:10.764Z,27.40
2019-02-18T09:13:39.235Z,26.53
2019-02-18T09:16:15.065Z,34.00
2019-02-18T09:18:43.535Z,26.80
2019-02-18T09:21:11.999Z,29.93
2019-02-18T09:23:48.188Z,35.73
2019-02-18T09:26:17.490Z,33.37
2019-02-18T09:28:45.955Z,25.37
2019-02-18T09:31:14.412Z,25.80
2019-02-18T09:33:42.878Z,29.23
2019-02-18T09:36:11.437Z,27.10
2019-02-18T09:38:39.900Z,33.00
2019-02-18T09:41:08.426Z,23.57
2019-02-18T09:43:36.895Z,30.13
2019-02-18T09:46:05.581Z,29.70
2019-02-18T09:48:34.590Z,19.87
2019-02-18T09:51:03.114Z,21.87
2019-02-18T09:53:31.670Z,17.50
2019-02-18T09:56:00.193Z,17.70
2019-02-18T09:58:28.661Z,19.27
2019-02-18T10:00:57.118Z,25.47
2019-02-18T10:03:32.003Z,22.30
2019-02-18T10:05:55.802Z,22.57
2019-02-18T10:08:24.274Z,23.77
2019-02-18T10:10:55.892Z,26.20
2019-02-18T10:13:42.261Z,25.73
2019-02-18T10:16:10.805Z,23.33
2019-02-18T10:18:39.370Z,26.73
2019-02-18T10:21:07.918Z,24.30
2019-02-18T10:23:36.397Z,32.53
2019-02-18T10:26:04.930Z,28.53
2019-02-18T10:28:33.416Z,29.03
2019-02-18T10:31:01.937Z,27.10
2019-02-18T10:33:30.403Z,29.17
2019-02-18T10:35:58.950Z,25.77
2019-02-18T10:38:27.455Z,24.43
2019-02-18T10:41:06.126Z,22.50
2019-02-18T10:43:32.398Z,25.97
2019-02-18T10:45:56.369Z,19.60
2019-02-18T10:48:25.415Z,24.80
2019-02-18T10:50:53.968Z,24.43
2019-02-18T10:53:22.485Z,22.77
2019-02-18T10:55:51.130Z,25.17
2019-02-18T10:58:19.671Z,24.90
2019-02-18T11:00:48.383Z,24.27
2019-02-18T11:03:16.844Z,22.50
2019-02-18T11:05:45.375Z,25.80
2019-02-18T11:08:13.853Z,23.10
2019-02-18T11:10:42.447Z,39.73
2019-02-18T11:13:10.903Z,22.80
2019-02-18T11:15:39.517Z,21.20
2019-02-18T11:18:08.070Z,20.87
2019-02-18T11:20:36.559Z,21.63
2019-02-18T11:23:05.020Z,20.83
2019-02-18T11:25:33.711Z,26.30
2019-02-18T11:28:02.883Z,22.33
2019-02-18T11:30:31.435Z,17.00
2019-02-18T11:33:00.351Z,24.37
2019-02-18T11:35:48.235Z,18.73
2019-02-18T11:38:17.275Z,16.37
2019-02-18T11:40:45.766Z,16.53
2019-02-18T11:43:14.304Z,24.13
2019-02-18T11:45:42.855Z,18.47
2019-02-18T11:48:11.386Z,17.93
2019-02-18T11:50:39.860Z,22.17
2019-02-18T11:53:08.801Z,16.73
2019-02-18T11:55:38.942Z,22.47
2019-02-18T11:58:07.470Z,28.37
2019-02-18T12:00:36.015Z,18.67
2019-02-18T12:03:11.566Z,18.67
2019-02-18T12:05:34.742Z,22.90
2019-02-18T12:08:03.929Z,22.80
2019-02-18T12:10:32.495Z,21.00
2019-02-18T12:13:01.022Z,21.73
2019-02-18T12:15:29.567Z,23.43
2019-02-18T12:17:58.124Z,18.00
2019-02-18T12:20:26.583Z,27.00
2019-02-18T12:22:55.049Z,24.27
2019-02-18T12:25:24.105Z,21.23
2019-02-18T12:27:52.651Z,17.70
2019-02-18T12:30:21.190Z,19.10
2019-02-18T12:32:49.734Z,22.67
2019-02-18T12:35:18.268Z,25.37
2019-02-18T12:37:54.874Z,23.93
2019-02-18T12:40:17.031Z,22.53
2019-02-18T12:42:45.571Z,24.10
2019-02-18T12:45:14.279Z,22.53
2019-02-18T12:47:43.088Z,18.27
2019-02-18T12:50:12.479Z,24.00
2019-02-18T12:52:41.452Z,23.07
2019-02-18T12:55:11.584Z,20.07
2019-02-18T12:57:40.675Z,24.37
2019-02-18T13:00:12.542Z,24.07
2019-02-18T13:02:44.623Z,23.70
2019-02-18T13:05:13.885Z,21.67
2019-02-18T13:07:42.494Z,23.63
2019-02-18T13:10:11.842Z,19.70
2019-02-18T13:12:40.699Z,25.33
2019-02-18T13:15:14.660Z,28.50
2019-02-18T13:17:43.392Z,28.30
2019-02-18T13:20:12.178Z,24.13
2019-02-18T13:22:40.775Z,26.07
2019-02-18T13:25:10.354Z,25.90
2019-02-18T13:27:39.005Z,31.33
2019-02-18T13:30:13.675Z,28.40
2019-02-18T13:32:42.258Z,26.90
2019-02-18T13:35:10.939Z,26.17
2019-02-18T13:37:39.466Z,32.50
2019-02-18T13:40:08.675Z,32.63
2019-02-18T13:42:37.205Z,26.97
2019-02-18T13:45:08.209Z,27.27
2019-02-18T13:47:36.740Z,27.43
2019-02-18T13:50:11.024Z,24.13
2019-02-18T13:52:39.660Z,22.70
2019-02-18T13:55:10.644Z,31.53
2019-02-18T13:57:39.650Z,27.63
2019-02-18T14:00:15.544Z,31.77
2019-02-18T14:02:44.096Z,32.10
2019-02-18T14:05:13.189Z,34.63
2019-02-18T14:07:41.713Z,35.80
2019-02-18T14:10:10.891Z,36.57
2019-02-18T14:12:39.718Z,38.93
2019-02-18T14:15:11.257Z,36.10
2019-02-18T14:17:39.902Z,36.60
2019-02-18T14:20:17.267Z,38.87
2019-02-18T14:22:45.843Z,38.37
2019-02-18T14:25:15.419Z,35.60
2019-02-18T14:27:44.032Z,39.00
2019-02-18T14:30:17.769Z,35.17
2019-02-18T14:32:46.845Z,35.40
2019-02-18T14:35:17.653Z,37.33
2019-02-18T14:37:46.527Z,35.30
2019-02-18T14:40:17.539Z,43.97
2019-02-18T14:42:46.545Z,38.20
2019-02-18T14:45:15.814Z,38.07
2019-02-18T14:47:44.354Z,48.40
2019-02-18T14:50:14.823Z,45.03
2019-02-18T14:52:43.435Z,42.33
2019-02-18T14:55:11.968Z,45.07
2019-02-18T14:57:40.518Z,45.43
2019-02-18T15:00:16.127Z,44.60
2019-02-18T15:02:44.593Z,47.20
2019-02-18T15:05:13.120Z,42.23
2019-02-18T15:07:42.165Z,50.27
2019-02-18T15:10:11.135Z,44.80
2019-02-18T15:12:39.735Z,44.40
2019-02-18T15:15:08.343Z,44.80
2019-02-18T15:17:36.897Z,54.90
2019-02-18T15:20:07.817Z,58.00
2019-02-18T15:22:36.819Z,49.53
2019-02-18T15:25:08.204Z,56.70
2019-02-18T15:27:36.825Z,56.73
2019-02-18T15:30:15.093Z,57.30
2019-02-18T15:32:43.656Z,63.83
2019-02-18T15:35:14.286Z,63.53
2019-02-18T15:37:42.971Z,62.90
2019-02-18T15:40:13.245Z,61.47
2019-02-18T15:42:42.728Z,64.50
2019-02-18T15:45:11.957Z,75.20
2019-02-18T15:47:41.355Z,64.77
2019-02-18T15:50:11.920Z,69.73
2019-02-18T15:52:40.534Z,70.27
2019-02-18T15:55:10.525Z,106.60
2019-02-18T15:57:39.093Z,141.10
2019-02-18T16:00:22.661Z,142.77
2019-02-18T16:02:51.881Z,144.90
2019-02-18T16:05:20.427Z,202.73
2019-02-18T16:07:49.043Z,166.17
2019-02-18T16:10:17.585Z,186.23
2019-02-18T16:12:50.970Z,200.53
2019-02-18T16:15:16.335Z,288.63
2019-02-18T16:17:45.351Z,299.40
2019-02-18T16:20:14.695Z,198.43
2019-02-18T16:22:43.269Z,175.30
2019-02-18T16:25:23.720Z,126.03
2019-02-18T16:27:52.248Z,129.87
2019-02-18T16:30:21.682Z,115.03
2019-02-18T16:32:50.211Z,121.43
2019-02-18T16:35:19.696Z,138.10
2019-02-18T16:37:48.274Z,149.00
2019-02-18T16:40:18.244Z,141.57
2019-02-18T16:42:47.046Z,144.40
2019-02-18T16:45:16.118Z,134.07
2019-02-18T16:47:44.941Z,120.03
2019-02-18T16:50:13.918Z,126.53
2019-02-18T16:52:42.461Z,111.57
2019-02-18T16:55:14.073Z,117.37
2019-02-18T16:57:42.647Z,111.20
2019-02-18T17:00:18.947Z,107.60
2019-02-18T17:02:47.487Z,116.90
2019-02-18T17:05:16.191Z,117.70
2019-02-18T17:07:44.750Z,115.70
2019-02-18T17:10:13.874Z,110.30
2019-02-18T17:12:42.603Z,110.50
2019-02-18T17:15:13.265Z,107.33
2019-02-18T17:17:41.953Z,113.93
2019-02-18T17:20:10.911Z,106.07
2019-02-18T17:22:39.521Z,101.00
2019-02-18T17:25:11.140Z,102.53
2019-02-18T17:27:39.686Z,98.13
2019-02-18T17:30:15.726Z,102.50
2019-02-18T17:32:44.367Z,99.63
2019-02-18T17:35:14.311Z,109.17
2019-02-18T17:37:42.911Z,100.40
2019-02-18T17:40:13.199Z,101.77
2019-02-18T17:42:42.214Z,101.33
2019-02-18T17:45:17.950Z,102.57
2019-02-18T17:47:46.599Z,122.77
2019-02-18T17:50:16.565Z,133.40
2019-02-18T17:52:45.895Z,134.17
2019-02-18T17:55:19.177Z,134.53
2019-02-18T17:57:47.764Z,134.47
2019-02-18T18:00:23.270Z,129.00
2019-02-18T18:02:51.899Z,128.87
2019-02-18T18:05:20.515Z,121.50
2019-02-18T18:07:49.456Z,118.27
2019-02-18T18:10:18.363Z,98.47
2019-02-18T18:12:46.828Z,92.47
2019-02-18T18:15:17.870Z,96.67
2019-02-18T18:17:46.586Z,90.07
2019-02-18T18:20:15.752Z,94.43
2019-02-18T18:22:44.307Z,89.77
2019-02-18T18:25:14.470Z,90.77
2019-02-18T18:27:43.001Z,90.27
2019-02-18T18:30:14.275Z,88.00
2019-02-18T18:32:42.988Z,99.50
2019-02-18T18:35:13.717Z,96.23
2019-02-18T18:37:42.236Z,98.37
2019-02-18T18:40:13.886Z,95.77
2019-02-18T18:42:42.681Z,93.97
2019-02-18T18:45:15.525Z,93.57
2019-02-18T18:47:43.942Z,91.43
2019-02-18T18:50:17.875Z,94.07
2019-02-18T18:52:46.915Z,92.30
2019-02-18T18:55:15.610Z,84.40
2019-02-18T18:57:44.238Z,95.70
2019-02-18T19:00:26.744Z,99.23
2019-02-18T19:02:55.286Z,96.20
2019-02-18T19:05:23.833Z,97.33
2019-02-18T19:07:52.368Z,99.63
2019-02-18T19:10:21.188Z,91.70
2019-02-18T19:12:49.740Z,97.77
2019-02-18T19:15:18.935Z,94.60
2019-02-18T19:17:47.473Z,101.27
2019-02-18T19:20:16.312Z,100.77
2019-02-18T19:22:44.849Z,94.90
2019-02-18T19:25:13.833Z,104.77
2019-02-18T19:27:42.382Z,101.70
2019-02-18T19:30:19.475Z,93.07
2019-02-18T19:32:48.222Z,94.20
2019-02-18T19:35:16.767Z,93.97
2019-02-18T19:37:45.301Z,100.87
2019-02-18T19:40:14.758Z,107.70
2019-02-18T19:42:43.310Z,101.87
2019-02-18T19:45:15.171Z,98.10
2019-02-18T19:47:44.108Z,108.63
2019-02-18T19:50:12.702Z,106.50
2019-02-18T19:52:41.170Z,99.43
2019-02-18T19:55:11.277Z,103.80
2019-02-18T19:57:39.822Z,102.30
2019-02-18T20:00:11.468Z,108.30
2019-02-18T20:02:40.033Z,105.07
2019-02-18T20:05:09.740Z,107.23
2019-02-18T20:07:38.288Z,105.03
2019-02-18T20:10:09.278Z,113.07
2019-02-18T20:12:37.809Z,106.53
2019-02-18T20:15:09.488Z,104.73
2019-02-18T20:17:38.071Z,107.93
2019-02-18T20:20:09.556Z,111.77
2019-02-18T20:22:38.157Z,111.20
2019-02-18T20:25:08.458Z,106.47
2019-02-18T20:27:37.370Z,110.23
2019-02-18T20:30:12.313Z,107.70
2019-02-18T20:32:40.845Z,110.03
2019-02-18T20:35:12.781Z,107.00
2019-02-18T20:37:41.324Z,111.33
2019-02-18T20:40:11.282Z,112.03
2019-02-18T20:42:40.319Z,108.10
2019-02-18T20:45:15.254Z,110.80
2019-02-18T20:47:43.809Z,101.90
2019-02-18T20:50:14.085Z,103.00
2019-02-18T20:52:42.706Z,110.47
2019-02-18T20:55:13.305Z,110.70
2019-02-18T20:57:41.905Z,114.53
2019-02-18T21:00:14.144Z,120.57
2019-02-18T21:02:42.612Z,113.27
2019-02-18T21:05:11.151Z,110.07
2019-02-18T21:07:39.707Z,107.50
2019-02-18T21:10:19.655Z,112.80
2019-02-18T21:12:48.192Z,114.73
2019-02-18T21:15:17.146Z,112.07
2019-02-18T21:17:45.682Z,111.83
2019-02-18T21:20:15.526Z,114.33
2019-02-18T21:22:44.070Z,115.60
2019-02-18T21:25:12.929Z,119.10
2019-02-18T21:27:41.492Z,111.77
2019-02-18T21:30:15.181Z,113.30
2019-02-18T21:32:43.720Z,108.47
2019-02-18T21:35:12.602Z,122.97
2019-02-18T21:37:41.581Z,118.77
2019-02-18T21:40:11.456Z,121.87
2019-02-18T21:42:40.163Z,119.30
2019-02-18T21:45:11.659Z,119.57
2019-02-18T21:47:40.207Z,133.90
2019-02-18T21:50:10.210Z,138.43
2019-02-18T21:52:39.168Z,130.90
2019-02-18T21:55:09.750Z,128.40
2019-02-18T21:57:38.346Z,126.20
2019-02-18T22:00:16.948Z,129.00
2019-02-18T22:02:45.469Z,128.83
2019-02-18T22:05:14.880Z,126.37
2019-02-18T22:07:43.693Z,126.17
2019-02-18T22:10:12.257Z,126.57
2019-02-18T22:12:40.842Z,135.17
2019-02-18T22:15:12.779Z,127.27
2019-02-18T22:17:41.324Z,140.67
2019-02-18T22:20:11.685Z,147.40
2019-02-18T22:22:40.152Z,134.23
2019-02-18T22:25:10.918Z,134.70
2019-02-18T22:27:39.518Z,142.40
2019-02-18T22:30:11.060Z,130.93
2019-02-18T22:32:39.596Z,144.13
2019-02-18T22:35:08.396Z,140.03
2019-02-18T22:37:37.334Z,124.40
2019-02-18T22:40:08.251Z,124.77
2019-02-18T22:42:36.743Z,126.20
2019-02-18T22:45:07.408Z,123.50
2019-02-18T22:47:35.903Z,128.30
2019-02-18T22:50:04.809Z,125.07
2019-02-18T22:52:33.752Z,127.53
2019-02-18T22:55:02.310Z,126.33
2019-02-18T22:57:30.858Z,130.03
2019-02-18T22:59:59.539Z,133.10
2019-02-18T23:02:28.086Z,126.70
2019-02-18T23:04:56.625Z,130.67
2019-02-18T23:07:25.200Z,129.73
2019-02-18T23:09:54.038Z,130.70
2019-02-18T23:12:22.578Z,126.33
2019-02-18T23:14:51.134Z,132.47
2019-02-18T23:17:19.665Z,133.83
2019-02-18T23:19:48.203Z,137.20
2019-02-18T23:22:16.781Z,130.90
2019-02-18T23:24:45.320Z,136.70
2019-02-18T23:27:13.847Z,134.83
2019-02-18T23:29:42.418Z,129.23
2019-02-18T23:32:10.958Z,130.07
2019-02-18T23:34:39.505Z,128.23
2019-02-18T23:37:08.039Z,126.03
2019-02-18T23:39:36.655Z,128.90
2019-02-18T23:42:05.173Z,132.67
2019-02-18T23:44:33.839Z,123.47
2019-02-18T23:47:02.290Z,129.80
2019-02-18T23:49:30.755Z,137.23
2019-02-18T23:51:59.289Z,133.00
2019-02-18T23:54:27.877Z,131.40
2019-02-18T23:56:56.406Z,129.67
2019-02-18T23:59:24.932Z,136.43
